Time;durP1;ratioP1;P1;durP2;ratioP2;P2;SDS_P1;SDS_P2;PMS_P1;PMS_P2;Temp;Humidity;BMP_temperature;BMP_pressure;BME280_temperature;BME280_humidity;BME280_pressure;Samples;Min_cycle;Max_cycle;Signal;HPM_P1;HPM_P2
2022/10/18 00:00:04;;;;;;;5.93;0.90;;;16.00;99.90;;;;;;4405605;32;20077;-77
2022/10/18 00:02:30;;;;;;;0.60;0.60;;;16.00;99.90;;;;;;4390460;32;20070;-77
2022/10/18 00:04:55;;;;;;;0.98;0.85;;;16.10;99.90;;;;;;4379999;32;20098;-77
2022/10/18 00:07:21;;;;;;;0.93;0.85;;;16.20;99.90;;;;;;4397385;32;20136;-76
2022/10/18 00:09:46;;;;;;;5.65;0.80;;;16.20;99.90;;;;;;4405568;32;20544;-77
2022/10/18 00:12:11;;;;;;;9.52;0.60;;;16.30;99.90;;;;;;4406176;32;20073;-77
2022/10/18 00:14:37;;;;;;;0.60;0.60;;;16.30;99.90;;;;;;4394107;32;20114;-77
2022/10/18 00:17:04;;;;;;;0.90;0.70;;;16.30;99.90;;;;;;4405008;32;20513;-76
2022/10/18 00:19:29;;;;;;;0.50;0.50;;;16.40;99.90;;;;;;4403928;32;20109;-77
2022/10/18 00:21:55;;;;;;;0.57;0.57;;;16.40;99.90;;;;;;4402639;32;20120;-76
2022/10/18 00:24:21;;;;;;;1.12;1.08;;;16.40;99.90;;;;;;4405585;32;20082;-76
2022/10/18 00:26:46;;;;;;;0.90;0.90;;;16.40;99.90;;;;;;4407021;32;20096;-75
2022/10/18 00:29:14;;;;;;;0.85;0.85;;;16.30;99.90;;;;;;4403342;32;20422;-77
2022/10/18 00:31:41;;;;;;;0.85;0.65;;;16.30;99.90;;;;;;4400698;32;20090;-76
2022/10/18 00:34:10;;;;;;;1.08;0.70;;;16.30;99.90;;;;;;4376208;32;20070;-77
2022/10/18 00:36:36;;;;;;;1.65;0.70;;;16.30;99.90;;;;;;4386894;32;20066;-76
2022/10/18 00:39:03;;;;;;;1.20;0.85;;;16.40;99.90;;;;;;4396195;32;20121;-77
2022/10/18 00:41:31;;;;;;;2.62;1.05;;;16.30;99.90;;;;;;4398482;32;20129;-77
2022/10/18 00:44:06;;;;;;;0.80;0.80;;;16.20;99.90;;;;;;4396730;32;20093;-77
2022/10/18 00:46:34;;;;;;;1.25;1.05;;;16.20;99.90;;;;;;4397039;32;20577;-77
2022/10/18 00:49:05;;;;;;;9.55;2.25;;;16.20;99.90;;;;;;4401662;32;20065;-77
2022/10/18 00:51:48;;;;;;;;;;;16.20;99.90;;;;;;4406860;32;20553;-77
2022/10/18 00:54:15;;;;;;;1.27;1.10;;;16.10;99.90;;;;;;4403656;32;19961;-77
2022/10/18 00:56:43;;;;;;;0.88;0.88;;;16.00;99.90;;;;;;4403904;32;20078;-77
2022/10/18 00:59:08;;;;;;;3.12;0.90;;;16.10;99.90;;;;;;4404305;32;20240;-77
2022/10/18 01:01:34;;;;;;;3.20;0.95;;;16.10;99.90;;;;;;4402546;32;20110;-78
2022/10/18 01:04:00;;;;;;;1.98;1.05;;;16.10;99.90;;;;;;4381139;32;20177;-77
2022/10/18 01:06:27;;;;;;;0.77;0.77;;;16.10;99.90;;;;;;4381099;32;20246;-77
2022/10/18 01:09:18;;;;;;;1.08;0.93;;;16.00;99.90;;;;;;4403263;32;20062;-76
2022/10/18 01:11:59;;;;;;;0.62;0.62;;;16.00;99.90;;;;;;4392831;32;20106;-77
2022/10/18 01:14:38;;;;;;;0.40;0.40;;;16.00;99.90;;;;;;4404497;32;20533;-76
2022/10/18 01:17:12;;;;;;;1.17;0.93;;;15.90;99.90;;;;;;4403152;32;20082;-77
2022/10/18 01:20:06;;;;;;;0.50;0.50;;;15.90;99.90;;;;;;4405654;32;20082;-77
2022/10/18 01:22:42;;;;;;;7.47;0.82;;;15.80;99.90;;;;;;4391552;32;20085;-77
2022/10/18 01:25:31;;;;;;;0.60;0.60;;;15.80;99.90;;;;;;4403486;32;20046;-77
2022/10/18 01:28:16;;;;;;;0.77;0.77;;;15.80;99.90;;;;;;4393865;32;20114;-77
2022/10/18 01:31:06;;;;;;;1.35;0.73;;;15.80;99.90;;;;;;4403596;32;20082;-76
2022/10/18 01:33:40;;;;;;;1.55;1.20;;;15.80;99.90;;;;;;4384550;32;20135;-77
2022/10/18 01:36:31;;;;;;;1.25;0.85;;;15.80;99.90;;;;;;4379667;32;20061;-77
2022/10/18 01:39:00;;;;;;;0.77;0.70;;;15.80;99.90;;;;;;4389622;32;20098;-76
2022/10/18 01:41:27;;;;;;;3.10;1.40;;;15.80;99.90;;;;;;4400094;32;20074;-77
2022/10/18 01:43:57;;;;;;;0.55;0.55;;;15.70;99.90;;;;;;4402287;32;20153;-77
2022/10/18 01:46:24;;;;;;;0.47;0.47;;;15.70;99.90;;;;;;4405934;32;20481;-76
2022/10/18 01:48:52;;;;;;;0.60;0.60;;;15.70;99.90;;;;;;4401663;32;20073;-76
2022/10/18 01:51:27;;;;;;;5.37;1.42;;;15.80;99.90;;;;;;4399677;32;20058;-76
2022/10/18 01:53:53;;;;;;;0.50;0.50;;;15.80;99.90;;;;;;4400717;32;20533;-76
2022/10/18 01:56:35;;;;;;;2.83;1.48;;;15.90;99.90;;;;;;4403058;32;20086;-77
2022/10/18 01:59:10;;;;;;;0.43;0.43;;;16.00;99.90;;;;;;4399810;32;20069;-78
2022/10/18 02:01:41;;;;;;;1.90;0.88;;;16.00;99.90;;;;;;4401562;32;20098;-78
2022/10/18 02:04:28;;;;;;;0.88;0.70;;;16.00;99.90;;;;;;4372707;32;20482;-78
2022/10/18 02:07:02;;;;;;;0.68;0.68;;;16.10;99.90;;;;;;4375070;32;20098;-78
2022/10/18 02:09:37;;;;;;;1.00;0.93;;;16.10;99.90;;;;;;4403740;32;20213;-76
2022/10/18 02:12:06;;;;;;;0.50;0.50;;;16.10;99.90;;;;;;4404510;32;20089;-76
2022/10/18 02:14:32;;;;;;;2.80;0.80;;;16.10;99.90;;;;;;4400688;32;20098;-76
2022/10/18 02:17:04;;;;;;;1.25;0.98;;;16.10;99.90;;;;;;4401839;32;20070;-75
2022/10/18 02:19:36;;;;;;;19.02;2.25;;;16.10;99.90;;;;;;4404042;32;20085;-77
2022/10/18 02:22:03;;;;;;;0.55;0.50;;;16.20;99.90;;;;;;4401765;32;20078;-76
2022/10/18 02:24:35;;;;;;;1.17;0.60;;;16.20;99.90;;;;;;4403055;32;20074;-78
2022/10/18 02:27:01;;;;;;;0.95;0.90;;;16.30;99.90;;;;;;4402431;32;20116;-78
2022/10/18 02:29:28;;;;;;;0.80;0.73;;;16.30;99.90;;;;;;4403858;32;20081;-75
2022/10/18 02:32:03;;;;;;;0.50;0.50;;;16.20;99.90;;;;;;4402472;32;20093;-77
2022/10/18 02:34:33;;;;;;;3.03;0.60;;;16.20;99.90;;;;;;4371733;32;20752;-77
2022/10/18 02:37:00;;;;;;;2.15;1.55;;;16.20;99.90;;;;;;4388838;32;20081;-77
2022/10/18 02:39:37;;;;;;;2.70;0.62;;;16.20;99.90;;;;;;4401558;32;20110;-76
2022/10/18 02:42:05;;;;;;;0.90;0.70;;;16.30;99.90;;;;;;4405708;32;20081;-76
2022/10/18 02:44:32;;;;;;;0.95;0.85;;;16.40;99.90;;;;;;4404176;32;20085;-77
2022/10/18 02:46:58;;;;;;;0.62;0.62;;;16.50;99.90;;;;;;4403965;32;20078;-77
2022/10/18 02:49:24;;;;;;;0.60;0.60;;;16.50;99.90;;;;;;4402933;32;20078;-77
2022/10/18 02:51:50;;;;;;;7.78;1.05;;;16.60;99.90;;;;;;4404973;32;20110;-77
2022/10/18 02:54:16;;;;;;;0.47;0.47;;;16.70;99.90;;;;;;4404618;32;20109;-76
2022/10/18 02:56:41;;;;;;;0.68;0.68;;;16.70;99.90;;;;;;4405258;32;20515;-77
2022/10/18 02:59:07;;;;;;;0.73;0.73;;;16.60;99.90;;;;;;4406071;32;20538;-77
2022/10/18 03:01:34;;;;;;;0.70;0.70;;;16.60;99.90;;;;;;4410228;32;20058;-77
2022/10/18 03:04:00;;;;;;;0.50;0.50;;;16.70;99.90;;;;;;4376817;32;20456;-78
2022/10/18 03:06:26;;;;;;;0.57;0.50;;;16.70;99.90;;;;;;4384770;32;20299;-77
2022/10/18 03:08:51;;;;;;;0.47;0.47;;;16.70;99.90;;;;;;4401769;32;20082;-77
2022/10/18 03:11:17;;;;;;;1.15;1.02;;;16.70;99.90;;;;;;4404564;32;20088;-76
2022/10/18 03:13:42;;;;;;;0.50;0.50;;;16.70;99.90;;;;;;4403872;32;20098;-77
2022/10/18 03:16:08;;;;;;;0.45;0.45;;;16.70;99.90;;;;;;4406124;32;20086;-77
2022/10/18 03:18:34;;;;;;;0.50;0.50;;;16.70;99.90;;;;;;4416851;32;20152;-77
2022/10/18 03:21:04;;;;;;;6.07;1.20;;;16.70;99.90;;;;;;4415412;32;20079;-77
2022/10/18 03:23:29;;;;;;;1.87;0.73;;;16.70;99.90;;;;;;4414986;32;20099;-78
2022/10/18 03:25:55;;;;;;;0.98;0.82;;;16.70;99.90;;;;;;4418106;32;20070;-78
2022/10/18 03:28:20;;;;;;;1.35;1.23;;;16.70;99.90;;;;;;4420103;32;20042;-77
2022/10/18 03:30:46;;;;;;;1.23;0.77;;;16.60;99.90;;;;;;4418511;32;20062;-77
2022/10/18 03:33:11;;;;;;;1.62;0.62;;;16.60;99.90;;;;;;4406299;32;20074;-78
2022/10/18 03:35:37;;;;;;;0.52;0.50;;;16.50;99.90;;;;;;4393627;32;20097;-78
2022/10/18 03:38:02;;;;;;;0.60;0.60;;;16.50;99.90;;;;;;4411515;32;20082;-78
2022/10/18 03:40:28;;;;;;;0.60;0.50;;;16.40;99.90;;;;;;4420547;32;20066;-78
2022/10/18 03:42:53;;;;;;;0.80;0.77;;;16.30;99.90;;;;;;4418704;32;20091;-78
2022/10/18 03:45:19;;;;;;;0.50;0.50;;;16.20;99.90;;;;;;4421372;32;20136;-79
2022/10/18 03:47:44;;;;;;;0.50;0.47;;;16.20;99.90;;;;;;4419549;32;20094;-78
2022/10/18 03:50:09;;;;;;;0.40;0.40;;;16.30;99.90;;;;;;4419184;32;20134;-78
2022/10/18 03:52:35;;;;;;;0.40;0.40;;;16.40;99.90;;;;;;4417632;32;20110;-78
2022/10/18 03:55:02;;;;;;;0.40;0.40;;;16.40;99.90;;;;;;4421160;32;20106;-77
2022/10/18 03:57:27;;;;;;;0.55;0.55;;;16.40;99.90;;;;;;4419220;32;20073;-78
2022/10/18 03:59:53;;;;;;;0.50;0.50;;;16.30;99.90;;;;;;4421082;32;20098;-77
2022/10/18 04:02:19;;;;;;;0.50;0.50;;;16.30;99.90;;;;;;4417401;32;20715;-78
2022/10/18 04:04:45;;;;;;;0.40;0.40;;;16.30;99.90;;;;;;4393326;32;20053;-78
2022/10/18 04:07:11;;;;;;;0.82;0.82;;;16.30;99.90;;;;;;4405770;32;20077;-78
2022/10/18 04:09:36;;;;;;;1.20;1.05;;;16.30;99.90;;;;;;4423467;32;20066;-78
2022/10/18 04:12:01;;;;;;;0.40;0.40;;;16.30;99.90;;;;;;4419731;32;20103;-78
2022/10/18 04:14:27;;;;;;;2.28;0.70;;;16.30;99.90;;;;;;4418569;32;20110;-77
2022/10/18 04:16:58;;;;;;;0.52;0.52;;;16.20;99.90;;;;;;4417550;32;20038;-78
2022/10/18 04:19:24;;;;;;;0.73;0.70;;;16.30;99.90;;;;;;4420056;32;20035;-78
2022/10/18 04:21:49;;;;;;;0.60;0.60;;;16.20;99.90;;;;;;4413144;32;20094;-77
2022/10/18 04:24:16;;;;;;;1.83;0.95;;;16.10;99.90;;;;;;4389576;32;20228;-78
2022/10/18 04:26:42;;;;;;;0.70;0.62;;;16.20;99.90;;;;;;4395245;32;20098;-78
2022/10/18 04:29:08;;;;;;;0.40;0.40;;;16.10;99.90;;;;;;4391326;32;20074;-78
2022/10/18 04:31:33;;;;;;;0.40;0.40;;;16.10;99.90;;;;;;4396864;32;20306;-78
2022/10/18 04:33:59;;;;;;;0.40;0.40;;;16.10;99.90;;;;;;4363022;32;20130;-78
2022/10/18 04:36:24;;;;;;;0.50;0.50;;;16.10;99.90;;;;;;4378982;32;20347;-78
2022/10/18 04:38:49;;;;;;;1.10;1.00;;;16.20;99.90;;;;;;4414880;32;20130;-78
2022/10/18 04:41:16;;;;;;;0.40;0.40;;;16.20;99.90;;;;;;4417385;32;20057;-77
2022/10/18 04:43:41;;;;;;;0.90;0.77;;;16.10;99.90;;;;;;4418621;32;20063;-77
2022/10/18 04:46:09;;;;;;;1.20;0.50;;;16.10;99.90;;;;;;4417633;32;20054;-77
2022/10/18 04:48:35;;;;;;;0.62;0.60;;;16.10;99.90;;;;;;4421104;32;20074;-76
2022/10/18 04:51:00;;;;;;;0.50;0.50;;;16.10;99.90;;;;;;4418554;32;20117;-77
2022/10/18 04:53:25;;;;;;;0.60;0.50;;;16.10;99.90;;;;;;4387982;32;20149;-78
2022/10/18 04:55:51;;;;;;;0.43;0.43;;;16.00;99.90;;;;;;4394832;32;20066;-78
2022/10/18 04:58:17;;;;;;;0.40;0.40;;;16.10;99.90;;;;;;4416768;32;20057;-77
2022/10/18 05:00:44;;;;;;;0.50;0.50;;;16.10;99.90;;;;;;4417056;32;20077;-77
2022/10/18 05:03:12;;;;;;;0.52;0.52;;;16.10;99.90;;;;;;4396027;32;20047;-77
2022/10/18 05:05:37;;;;;;;0.57;0.50;;;16.00;99.90;;;;;;4368148;32;20134;-78
2022/10/18 05:08:03;;;;;;;5.15;0.50;;;16.00;99.90;;;;;;4385195;32;20083;-78
2022/10/18 05:10:29;;;;;;;0.60;0.60;;;16.00;99.90;;;;;;4385096;32;20699;-77
2022/10/18 05:12:54;;;;;;;2.92;1.60;;;16.00;99.90;;;;;;4384601;32;20074;-77
2022/10/18 05:15:21;;;;;;;1.30;0.65;;;16.00;99.90;;;;;;4380961;32;20568;-77
2022/10/18 05:17:46;;;;;;;0.47;0.45;;;15.90;99.90;;;;;;4374920;32;20205;-77
2022/10/18 05:20:12;;;;;;;0.45;0.45;;;15.80;99.90;;;;;;4345703;32;20168;-77
2022/10/18 05:22:37;;;;;;;0.82;0.77;;;15.80;99.90;;;;;;4362694;32;20375;-77
2022/10/18 05:25:03;;;;;;;0.80;0.60;;;15.80;99.90;;;;;;4324059;32;20216;-78
2022/10/18 05:27:28;;;;;;;0.70;0.70;;;15.80;99.90;;;;;;4368670;32;20154;-78
2022/10/18 05:29:54;;;;;;;0.60;0.60;;;15.90;99.90;;;;;;4338780;32;20353;-79
2022/10/18 05:32:20;;;;;;;0.60;0.60;;;15.90;99.90;;;;;;4352438;32;20234;-77
2022/10/18 05:34:46;;;;;;;0.82;0.77;;;15.90;99.90;;;;;;4361493;32;20173;-78
2022/10/18 05:37:12;;;;;;;0.60;0.60;;;15.80;99.90;;;;;;4378467;32;20467;-79
2022/10/18 05:39:38;;;;;;;1.02;0.60;;;15.90;99.90;;;;;;4380297;32;20362;-78
2022/10/18 05:42:04;;;;;;;0.50;0.50;;;15.90;99.90;;;;;;4379671;32;20062;-78
2022/10/18 05:44:30;;;;;;;0.70;0.70;;;15.90;99.90;;;;;;4384211;32;20103;-79
2022/10/18 05:46:56;;;;;;;0.70;0.70;;;15.90;99.90;;;;;;4392290;32;20161;-78
2022/10/18 05:49:24;;;;;;;0.60;0.60;;;15.90;99.90;;;;;;4384432;32;20920;-78
2022/10/18 05:51:50;;;;;;;1.00;0.55;;;15.90;99.90;;;;;;4382808;32;20171;-78
2022/10/18 05:54:16;;;;;;;0.60;0.60;;;15.90;99.90;;;;;;4376704;32;20831;-78
2022/10/18 05:56:42;;;;;;;0.65;0.65;;;15.80;99.90;;;;;;4379730;32;20318;-77
2022/10/18 05:59:10;;;;;;;0.52;0.50;;;15.70;99.90;;;;;;4383265;32;20240;-77
2022/10/18 06:01:38;;;;;;;0.80;0.43;;;15.80;99.90;;;;;;4365412;32;20097;-76
2022/10/18 06:04:04;;;;;;;2.20;0.73;;;15.90;99.90;;;;;;4340395;32;20123;-77
2022/10/18 06:06:31;;;;;;;0.47;0.47;;;15.90;99.90;;;;;;4351687;32;20225;-76
2022/10/18 06:08:57;;;;;;;1.40;0.90;;;15.80;99.90;;;;;;4363001;32;20125;-79
2022/10/18 06:11:22;;;;;;;1.08;0.65;;;15.80;99.90;;;;;;4373767;32;20156;-79
2022/10/18 06:13:51;;;;;;;3.45;0.70;;;15.80;99.90;;;;;;4381944;32;20102;-80
2022/10/18 06:16:19;;;;;;;0.60;0.60;;;15.80;99.90;;;;;;4378304;32;20928;-78
2022/10/18 06:18:48;;;;;;;4.97;2.25;;;15.70;99.90;;;;;;4378333;32;20144;-77
2022/10/18 06:21:14;;;;;;;2.28;1.35;;;15.60;99.90;;;;;;4370703;32;20105;-76
2022/10/18 06:23:39;;;;;;;0.65;0.65;;;15.70;99.90;;;;;;4376679;32;20106;-77
2022/10/18 06:26:06;;;;;;;1.05;0.80;;;15.80;99.90;;;;;;4387261;32;20098;-77
2022/10/18 06:28:34;;;;;;;0.93;0.85;;;15.80;99.90;;;;;;4395658;32;20133;-78
2022/10/18 06:33:32;;;;;;;0.55;0.55;;;15.70;99.90;;;;;;4317308;32;20132;-75
2022/10/18 06:35:59;;;;;;;1.70;0.70;;;15.70;99.90;;;;;;4310390;32;20231;-74
2022/10/18 06:38:26;;;;;;;1.35;1.25;;;15.60;99.90;;;;;;4322503;32;20126;-75
2022/10/18 06:40:54;;;;;;;1.45;0.62;;;15.60;99.90;;;;;;4333167;32;20108;-77
2022/10/18 06:43:19;;;;;;;0.70;0.70;;;15.70;99.90;;;;;;4324784;32;20229;-76
2022/10/18 06:45:45;;;;;;;4.30;1.35;;;15.80;99.90;;;;;;4326346;32;21448;-75
2022/10/18 06:48:10;;;;;;;7.32;1.95;;;15.80;99.90;;;;;;4321243;32;20140;-77
2022/10/18 06:50:36;;;;;;;0.37;0.37;;;15.90;99.90;;;;;;4316160;32;20122;-75
2022/10/18 06:53:04;;;;;;;0.60;0.60;;;15.90;99.90;;;;;;4317911;32;20119;-77
2022/10/18 06:55:30;;;;;;;1.17;0.80;;;15.80;99.90;;;;;;4327739;32;20145;-76
2022/10/18 06:57:56;;;;;;;0.47;0.47;;;15.80;99.90;;;;;;4328186;32;20171;-75
2022/10/18 07:00:21;;;;;;;0.40;0.40;;;15.90;99.90;;;;;;4316698;32;21011;-75
2022/10/18 07:02:47;;;;;;;6.72;1.85;;;15.90;99.90;;;;;;4314161;32;20343;-77
2022/10/18 07:05:12;;;;;;;4.05;1.00;;;15.90;99.90;;;;;;4296421;32;20893;-76
2022/10/18 07:07:38;;;;;;;1.08;0.82;;;15.90;99.90;;;;;;4303019;32;20099;-76
2022/10/18 07:10:04;;;;;;;0.55;0.55;;;16.00;99.90;;;;;;4319361;32;20127;-76
2022/10/18 07:12:30;;;;;;;0.60;0.60;;;16.00;99.90;;;;;;4312443;32;20094;-76
2022/10/18 07:14:56;;;;;;;0.82;0.62;;;16.00;99.90;;;;;;4315105;32;20108;-78
2022/10/18 07:17:21;;;;;;;0.62;0.50;;;15.90;99.90;;;;;;4322067;32;21444;-76
2022/10/18 07:19:47;;;;;;;0.50;0.50;;;15.90;99.90;;;;;;4320602;32;20097;-75
2022/10/18 07:22:12;;;;;;;0.40;0.40;;;16.00;99.90;;;;;;4333886;32;20086;-76
2022/10/18 07:24:38;;;;;;;0.93;0.80;;;16.00;99.90;;;;;;4339036;32;20297;-76
2022/10/18 07:27:03;;;;;;;0.75;0.60;;;16.00;99.90;;;;;;4340009;32;20094;-75
2022/10/18 07:29:29;;;;;;;0.60;0.60;;;16.00;99.90;;;;;;4335142;32;20105;-78
2022/10/18 07:31:55;;;;;;;5.12;0.60;;;16.00;99.90;;;;;;4318577;32;20087;-76
2022/10/18 07:34:20;;;;;;;0.82;0.82;;;16.10;99.90;;;;;;4296161;32;20346;-76
2022/10/18 07:36:46;;;;;;;8.20;1.37;;;16.10;99.90;;;;;;4298265;32;20103;-75
2022/10/18 07:39:11;;;;;;;0.45;0.45;;;16.10;99.90;;;;;;4332663;32;20443;-77
2022/10/18 07:41:37;;;;;;;0.50;0.50;;;16.00;99.90;;;;;;4337226;32;20158;-77
2022/10/18 07:44:03;;;;;;;1.10;0.70;;;16.10;99.90;;;;;;4343312;32;20084;-77
2022/10/18 07:46:29;;;;;;;0.68;0.68;;;16.00;99.90;;;;;;4333612;32;20415;-77
2022/10/18 07:48:57;;;;;;;0.55;0.55;;;16.00;99.90;;;;;;4323093;32;20193;-77
2022/10/18 07:51:22;;;;;;;1.25;1.00;;;15.90;99.90;;;;;;4323384;32;20127;-78
2022/10/18 07:53:48;;;;;;;0.65;0.65;;;15.90;99.90;;;;;;4318333;32;20500;-78
2022/10/18 07:56:19;;;;;;;0.88;0.80;;;15.80;99.90;;;;;;4327477;32;20124;-77
2022/10/18 07:58:47;;;;;;;0.73;0.62;;;15.90;99.90;;;;;;4327175;32;20090;-77
2022/10/18 08:01:14;;;;;;;0.47;0.47;;;16.00;99.90;;;;;;4318454;32;20990;-78
2022/10/18 08:03:40;;;;;;;0.55;0.55;;;16.00;99.90;;;;;;4326923;32;20178;-77
2022/10/18 08:06:08;;;;;;;0.40;0.40;;;16.00;99.90;;;;;;4326752;32;20830;-77
2022/10/18 08:08:35;;;;;;;0.52;0.52;;;16.10;99.90;;;;;;4326651;32;20279;-77
2022/10/18 08:11:05;;;;;;;0.50;0.50;;;16.00;99.90;;;;;;4323172;32;20127;-77
2022/10/18 08:13:30;;;;;;;8.00;0.73;;;16.10;99.90;;;;;;4330911;32;20094;-79
2022/10/18 08:16:06;;;;;;;0.50;0.50;;;16.10;99.90;;;;;;4329581;32;20417;-79
2022/10/18 08:18:32;;;;;;;0.40;0.40;;;16.10;99.90;;;;;;4326990;32;22003;-77
2022/10/18 08:21:00;;;;;;;0.43;0.43;;;16.10;99.90;;;;;;4330260;32;20137;-76
2022/10/18 08:23:25;;;;;;;6.30;0.70;;;16.00;99.90;;;;;;4332472;32;21491;-75
2022/10/18 08:25:51;;;;;;;1.17;0.60;;;16.10;99.90;;;;;;4331725;32;20067;-75
2022/10/18 08:28:16;;;;;;;0.75;0.60;;;16.10;99.90;;;;;;4334102;32;20758;-77
2022/10/18 08:30:42;;;;;;;0.57;0.57;;;16.10;99.90;;;;;;4325131;32;20086;-77
2022/10/18 08:33:08;;;;;;;0.40;0.40;;;16.10;99.90;;;;;;4329865;32;92050;-77
2022/10/18 08:35:34;;;;;;;0.40;0.40;;;16.10;99.90;;;;;;4331545;32;20090;-77
2022/10/18 08:37:59;;;;;;;3.50;0.68;;;16.10;99.90;;;;;;4337873;32;20151;-78
2022/10/18 08:40:26;;;;;;;0.73;0.65;;;16.10;99.90;;;;;;4337644;32;21062;-77
2022/10/18 08:43:07;;;;;;;8.32;1.77;;;16.20;99.90;;;;;;4341023;32;20420;-77
2022/10/18 08:45:37;;;;;;;0.62;0.62;;;16.10;99.90;;;;;;4347072;32;20427;-77
2022/10/18 08:48:04;;;;;;;0.55;0.50;;;16.10;99.90;;;;;;4344084;32;20078;-76
2022/10/18 08:50:34;;;;;;;0.85;0.85;;;16.10;99.90;;;;;;4332436;32;20348;-75
2022/10/18 08:53:05;;;;;;;1.57;1.03;;;16.20;99.90;;;;;;4336051;32;20297;-76
2022/10/18 08:55:38;;;;;;;0.57;0.57;;;16.20;99.90;;;;;;4349325;32;20646;-76
2022/10/18 08:58:26;;;;;;;0.73;0.70;;;16.10;99.90;;;;;;4365211;32;20350;-74
2022/10/18 09:01:14;;;;;;;7.43;1.65;;;16.10;99.90;;;;;;4348724;32;20107;-75
2022/10/18 09:03:50;;;;;;;0.40;0.40;;;16.10;99.90;;;;;;4343136;32;20251;-75
2022/10/18 09:06:30;;;;;;;0.45;0.40;;;16.10;99.90;;;;;;4360284;32;20350;-76
2022/10/18 09:09:35;;;;;;;0.47;0.47;;;16.10;99.90;;;;;;4356972;32;20078;-75
2022/10/18 09:12:28;;;;;;;0.32;0.32;;;16.10;99.90;;;;;;4332218;32;20075;-75
2022/10/18 09:15:22;;;;;;;1.15;0.80;;;16.10;99.90;;;;;;4352214;32;20103;-76
2022/10/18 09:18:27;;;;;;;4.60;0.70;;;16.00;99.90;;;;;;4327073;32;22147;-76
2022/10/18 09:20:56;;;;;;;1.10;0.77;;;16.10;99.90;;;;;;4315244;32;20168;-76
2022/10/18 09:23:54;;;;;;;1.05;0.80;;;16.10;99.90;;;;;;4300284;32;20164;-77
2022/10/18 09:26:23;;;;;;;1.67;0.77;;;16.00;99.90;;;;;;4314354;32;20118;-77
2022/10/18 09:29:07;;;;;;;0.50;0.50;;;16.00;99.90;;;;;;4331781;32;20381;-79
2022/10/18 09:31:55;;;;;;;3.92;0.82;;;16.00;99.90;;;;;;4338797;32;20177;-75
2022/10/18 09:34:36;;;;;;;1.20;0.70;;;16.00;99.90;;;;;;4336055;32;20329;-75
2022/10/18 09:37:02;;;;;;;0.50;0.50;;;16.00;99.90;;;;;;4346193;32;20269;-75
2022/10/18 09:39:32;;;;;;;1.42;0.60;;;16.00;99.90;;;;;;4352529;32;20199;-75
2022/10/18 09:42:03;;;;;;;0.70;0.70;;;16.00;99.90;;;;;;4340790;32;20102;-76
2022/10/18 09:44:36;;;;;;;0.50;0.50;;;16.00;99.90;;;;;;4344406;32;20090;-75
2022/10/18 09:47:11;;;;;;;0.93;0.65;;;15.90;99.90;;;;;;4343697;32;20090;-76
2022/10/18 09:49:42;;;;;;;0.45;0.45;;;15.90;99.90;;;;;;4339631;32;20250;-76
2022/10/18 09:52:16;;;;;;;0.50;0.50;;;15.90;99.90;;;;;;4329635;32;20178;-76
2022/10/18 09:54:48;;;;;;;1.02;0.95;;;15.90;99.90;;;;;;4340714;32;20090;-76
2022/10/18 09:57:23;;;;;;;0.50;0.50;;;16.00;99.90;;;;;;4349533;32;20092;-76
2022/10/18 09:59:49;;;;;;;0.60;0.60;;;16.00;99.90;;;;;;4332830;32;21515;-76
2022/10/18 10:02:17;;;;;;;5.62;2.25;;;16.00;99.90;;;;;;4341428;32;20173;-76
2022/10/18 10:04:43;;;;;;;0.88;0.62;;;16.00;99.90;;;;;;4321043;32;20438;-75
2022/10/18 10:07:15;;;;;;;0.62;0.62;;;16.00;99.90;;;;;;4328615;32;20301;-75
2022/10/18 10:09:57;;;;;;;0.60;0.50;;;16.00;99.90;;;;;;4332971;32;20118;-75
2022/10/18 10:12:29;;;;;;;0.45;0.45;;;16.10;99.90;;;;;;4319142;32;20199;-75
2022/10/18 10:15:07;;;;;;;1.37;1.10;;;16.00;99.90;;;;;;4335181;32;20119;-75
2022/10/18 10:17:33;;;;;;;0.50;0.50;;;16.00;99.90;;;;;;4326709;32;20108;-77
2022/10/18 10:20:09;;;;;;;1.10;0.68;;;16.00;99.90;;;;;;4316048;32;20388;-76
2022/10/18 10:22:38;;;;;;;0.45;0.40;;;16.00;99.90;;;;;;4323465;32;20261;-77
2022/10/18 10:25:05;;;;;;;0.50;0.50;;;16.00;99.90;;;;;;4337533;32;20184;-76
2022/10/18 10:27:39;;;;;;;0.62;0.52;;;15.90;99.90;;;;;;4344207;32;20508;-75
2022/10/18 10:30:21;;;;;;;0.43;0.43;;;15.90;99.90;;;;;;4337101;32;20535;-76
2022/10/18 10:32:49;;;;;;;0.70;0.70;;;15.90;99.90;;;;;;4346705;32;20280;-77
2022/10/18 10:35:24;;;;;;;0.50;0.50;;;15.90;99.90;;;;;;4335515;32;20404;-75
2022/10/18 10:37:52;;;;;;;0.55;0.47;;;15.90;99.90;;;;;;4350658;32;20118;-77
2022/10/18 10:40:21;;;;;;;0.95;0.40;;;15.90;99.90;;;;;;4356442;32;20086;-75
2022/10/18 10:42:56;;;;;;;0.55;0.50;;;15.90;99.90;;;;;;4350127;32;20059;-74
2022/10/18 10:45:23;;;;;;;0.45;0.45;;;15.90;99.90;;;;;;4350078;32;20102;-74
2022/10/18 10:47:50;;;;;;;0.50;0.50;;;15.80;99.90;;;;;;4350666;32;20188;-75
2022/10/18 10:50:24;;;;;;;1.12;0.65;;;15.80;99.90;;;;;;4350578;32;20700;-74
2022/10/18 10:52:51;;;;;;;0.47;0.47;;;15.90;99.90;;;;;;4339831;32;20094;-74
2022/10/18 10:55:20;;;;;;;1.15;0.50;;;15.90;99.90;;;;;;4335491;32;20103;-73
2022/10/18 10:57:48;;;;;;;1.75;0.77;;;15.80;99.90;;;;;;4349266;32;20353;-74
2022/10/18 11:00:35;;;;;;;2.65;0.75;;;15.90;99.90;;;;;;4350139;32;20284;-74
2022/10/18 11:03:19;;;;;;;0.60;0.60;;;15.90;99.90;;;;;;4349694;32;20083;-75
2022/10/18 11:05:48;;;;;;;2.35;1.08;;;15.80;99.90;;;;;;4326612;32;20115;-74
2022/10/18 11:08:18;;;;;;;0.60;0.60;;;15.90;99.90;;;;;;4342366;32;20105;-75
2022/10/18 11:10:53;;;;;;;0.55;0.55;;;15.90;99.90;;;;;;4356333;32;20197;-75
2022/10/18 11:13:30;;;;;;;0.50;0.50;;;16.00;99.90;;;;;;4358258;32;20399;-74
2022/10/18 11:16:03;;;;;;;0.60;0.60;;;16.00;99.90;;;;;;4351259;32;20142;-75
2022/10/18 11:18:35;;;;;;;0.55;0.55;;;16.00;99.90;;;;;;4341613;32;20182;-74
2022/10/18 11:21:15;;;;;;;0.32;0.32;;;16.00;99.90;;;;;;4339735;32;20550;-76
2022/10/18 11:23:42;;;;;;;0.35;0.35;;;16.00;99.90;;;;;;4339451;32;20123;-74
2022/10/18 11:26:13;;;;;;;0.47;0.47;;;16.00;99.90;;;;;;4346647;32;20208;-74
2022/10/18 11:29:06;;;;;;;0.62;0.62;;;16.00;99.90;;;;;;4342629;32;20083;-77
2022/10/18 11:32:01;;;;;;;0.50;0.50;;;15.90;99.90;;;;;;4351277;32;20094;-76
2022/10/18 11:34:36;;;;;;;0.43;0.43;;;16.00;99.90;;;;;;4332515;32;20223;-76
2022/10/18 11:37:41;;;;;;;1.40;0.93;;;16.00;99.90;;;;;;4351251;32;20111;-76
2022/10/18 11:40:43;;;;;;;0.50;0.50;;;16.10;99.90;;;;;;4338874;32;20102;-75
2022/10/18 11:43:50;;;;;;;2.83;1.58;;;16.00;99.90;;;;;;4348736;32;21023;-76
2022/10/18 11:46:28;;;;;;;0.37;0.37;;;16.10;99.90;;;;;;4357377;32;20127;-76
2022/10/18 11:49:06;;;;;;;0.37;0.37;;;16.10;99.90;;;;;;4354798;32;20083;-74
2022/10/18 11:51:47;;;;;;;0.50;0.50;;;16.10;99.90;;;;;;4341788;32;20126;-75
2022/10/18 11:54:35;;;;;;;0.50;0.50;;;16.10;99.90;;;;;;4338937;32;20177;-76
2022/10/18 11:57:31;;;;;;;1.05;0.95;;;16.10;99.90;;;;;;4358775;32;20102;-74
2022/10/18 12:00:20;;;;;;;1.40;0.60;;;16.20;99.90;;;;;;4334916;32;20184;-76
2022/10/18 12:03:01;;;;;;;0.80;0.40;;;16.20;99.90;;;;;;4354318;32;20254;-76
2022/10/18 12:05:29;;;;;;;1.15;0.60;;;16.30;99.90;;;;;;4335186;32;20074;-76
2022/10/18 12:08:05;;;;;;;11.35;0.77;;;16.30;99.90;;;;;;4358856;32;20107;-76
2022/10/18 12:10:33;;;;;;;0.30;0.30;;;16.20;99.90;;;;;;4363021;32;20142;-75
2022/10/18 12:13:02;;;;;;;0.50;0.50;;;16.20;99.90;;;;;;4359177;32;20098;-76
2022/10/18 12:15:30;;;;;;;0.55;0.55;;;16.30;99.90;;;;;;4364111;32;20199;-75
2022/10/18 12:18:02;;;;;;;0.45;0.45;;;16.20;99.90;;;;;;4363891;32;20098;-75
2022/10/18 12:20:34;;;;;;;0.65;0.40;;;16.20;99.90;;;;;;4355442;32;20225;-76
2022/10/18 12:23:09;;;;;;;1.75;1.00;;;16.10;99.90;;;;;;4357940;32;20091;-76
2022/10/18 12:25:39;;;;;;;0.50;0.50;;;16.10;99.90;;;;;;4351031;32;21277;-76
2022/10/18 12:28:15;;;;;;;0.30;0.30;;;16.10;99.90;;;;;;4343066;32;20196;-77
2022/10/18 12:30:51;;;;;;;0.65;0.65;;;16.20;99.90;;;;;;4333651;32;20367;-76
2022/10/18 12:33:22;;;;;;;0.43;0.43;;;16.10;99.90;;;;;;4323994;32;20443;-76
2022/10/18 12:36:21;;;;;;;0.47;0.47;;;16.10;99.90;;;;;;4328361;32;20227;-75
2022/10/18 12:38:52;;;;;;;0.50;0.50;;;16.10;99.90;;;;;;4344101;32;20114;-76
2022/10/18 12:41:24;;;;;;;0.43;0.43;;;16.20;99.90;;;;;;4353131;32;20218;-76
2022/10/18 12:43:53;;;;;;;0.40;0.40;;;16.20;99.90;;;;;;4349725;32;20134;-76
2022/10/18 12:46:20;;;;;;;0.32;0.32;;;16.10;99.90;;;;;;4364210;32;20667;-76
2022/10/18 12:49:00;;;;;;;0.50;0.50;;;16.10;99.90;;;;;;4355766;32;20313;-75
2022/10/18 12:51:26;;;;;;;0.50;0.50;;;16.20;99.90;;;;;;4358846;32;20108;-76
2022/10/18 12:54:09;;;;;;;0.68;0.68;;;16.20;99.90;;;;;;4356754;32;20099;-76
2022/10/18 12:56:40;;;;;;;1.85;0.70;;;16.10;99.90;;;;;;4355450;32;20215;-77
2022/10/18 12:59:16;;;;;;;0.70;0.70;;;16.10;99.90;;;;;;4348326;32;20070;-74
2022/10/18 13:02:18;;;;;;;0.50;0.50;;;16.00;99.90;;;;;;4356082;32;20149;-75
2022/10/18 13:04:43;;;;;;;5.50;0.52;;;16.00;99.90;;;;;;4335514;32;20493;-76
2022/10/18 13:07:16;;;;;;;0.43;0.43;;;16.10;99.90;;;;;;4362122;32;20100;-75